sensor_id;sensor_type;location;lat;lon;timestamp;temperature;humidity
5578;DHT22;2811;51.900;10.734;2023-07-29T00:02:10;21.40;99.90
5578;DHT22;2811;51.900;10.734;2023-07-29T00:04:37;21.20;99.90
5578;DHT22;2811;51.900;10.734;2023-07-29T00:07:05;21.10;99.90
5578;DHT22;2811;51.900;10.734;2023-07-29T00:09:32;20.90;99.90
5578;DHT22;2811;51.900;10.734;2023-07-29T00:11:58;20.90;99.90
5578;DHT22;2811;51.900;10.734;2023-07-29T00:14:25;20.80;99.90
5578;DHT22;2811;51.900;10.734;2023-07-29T00:16:52;20.60;99.90
5578;DHT22;2811;51.900;10.734;2023-07-29T00:19:18;20.60;99.90
5578;DHT22;2811;51.900;10.734;2023-07-29T00:21:48;20.40;99.90
5578;DHT22;2811;51.900;10.734;2023-07-29T00:24:16;20.50;99.90
5578;DHT22;2811;51.900;10.734;2023-07-29T00:26:43;20.70;99.90
5578;DHT22;2811;51.900;10.734;2023-07-29T00:29:10;20.30;99.90
5578;DHT22;2811;51.900;10.734;2023-07-29T00:31:37;20.20;99.90
5578;DHT22;2811;51.900;10.734;2023-07-29T00:34:03;20.20;99.90
5578;DHT22;2811;51.900;10.734;2023-07-29T00:36:30;20.10;99.90
5578;DHT22;2811;51.900;10.734;2023-07-29T00:38:57;20.20;99.90
5578;DHT22;2811;51.900;10.734;2023-07-29T00:41:26;20.20;99.90
5578;DHT22;2811;51.900;10.734;2023-07-29T00:43:52;20.20;99.90
5578;DHT22;2811;51.900;10.734;2023-07-29T00:46:20;19.90;99.90
5578;DHT22;2811;51.900;10.734;2023-07-29T00:48:47;19.80;99.90
5578;DHT22;2811;51.900;10.734;2023-07-29T00:51:14;19.80;99.90
5578;DHT22;2811;51.900;10.734;2023-07-29T00:53:41;19.70;99.90
5578;DHT22;2811;51.900;10.734;2023-07-29T00:56:07;19.60;99.90
5578;DHT22;2811;51.900;10.734;2023-07-29T00:58:35;19.70;99.90
5578;DHT22;2811;51.900;10.734;2023-07-29T01:01:02;19.80;99.90
5578;DHT22;2811;51.900;10.734;2023-07-29T01:03:29;19.90;99.90
5578;DHT22;2811;51.900;10.734;2023-07-29T01:06:04;20.00;99.90
5578;DHT22;2811;51.900;10.734;2023-07-29T01:08:40;19.90;99.90
5578;DHT22;2811;51.900;10.734;2023-07-29T01:11:24;19.60;99.90
5578;DHT22;2811;51.900;10.734;2023-07-29T01:14:00;19.40;99.90
5578;DHT22;2811;51.900;10.734;2023-07-29T01:16:31;19.50;99.90
5578;DHT22;2811;51.900;10.734;2023-07-29T01:19:05;19.40;99.90
5578;DHT22;2811;51.900;10.734;2023-07-29T01:21:33;19.50;99.90
5578;DHT22;2811;51.900;10.734;2023-07-29T01:24:03;19.40;99.90
5578;DHT22;2811;51.900;10.734;2023-07-29T01:26:30;19.50;99.90
5578;DHT22;2811;51.900;10.734;2023-07-29T01:28:56;19.60;99.90
5578;DHT22;2811;51.900;10.734;2023-07-29T01:31:30;19.60;99.90
5578;DHT22;2811;51.900;10.734;2023-07-29T01:34:02;19.70;99.90
5578;DHT22;2811;51.900;10.734;2023-07-29T01:36:32;19.60;99.90
5578;DHT22;2811;51.900;10.734;2023-07-29T01:39:03;19.50;99.90
5578;DHT22;2811;51.900;10.734;2023-07-29T01:41:30;19.70;99.90
5578;DHT22;2811;51.900;10.734;2023-07-29T01:43:57;19.80;99.90
5578;DHT22;2811;51.900;10.734;2023-07-29T01:46:23;19.80;99.90
5578;DHT22;2811;51.900;10.734;2023-07-29T01:48:50;19.80;99.90
5578;DHT22;2811;51.900;10.734;2023-07-29T01:51:17;20.00;99.90
5578;DHT22;2811;51.900;10.734;2023-07-29T01:53:43;19.90;99.90
5578;DHT22;2811;51.900;10.734;2023-07-29T01:56:11;20.00;99.90
5578;DHT22;2811;51.900;10.734;2023-07-29T01:58:38;19.90;99.90
5578;DHT22;2811;51.900;10.734;2023-07-29T02:01:05;19.90;99.90
5578;DHT22;2811;51.900;10.734;2023-07-29T02:03:32;19.90;99.90
5578;DHT22;2811;51.900;10.734;2023-07-29T02:05:58;19.80;99.90
5578;DHT22;2811;51.900;10.734;2023-07-29T02:08:25;19.80;99.90
5578;DHT22;2811;51.900;10.734;2023-07-29T02:10:52;19.80;99.90
5578;DHT22;2811;51.900;10.734;2023-07-29T02:13:20;19.70;99.90
5578;DHT22;2811;51.900;10.734;2023-07-29T02:15:46;19.80;99.90
5578;DHT22;2811;51.900;10.734;2023-07-29T02:18:13;19.80;99.90
5578;DHT22;2811;51.900;10.734;2023-07-29T02:20:40;19.80;99.90
5578;DHT22;2811;51.900;10.734;2023-07-29T02:23:11;19.70;99.90
5578;DHT22;2811;51.900;10.734;2023-07-29T02:25:38;19.60;99.90
5578;DHT22;2811;51.900;10.734;2023-07-29T02:28:04;19.40;99.90
5578;DHT22;2811;51.900;10.734;2023-07-29T02:30:32;19.40;99.90
5578;DHT22;2811;51.900;10.734;2023-07-29T02:32:59;19.20;99.90
5578;DHT22;2811;51.900;10.734;2023-07-29T02:35:26;19.10;99.90
5578;DHT22;2811;51.900;10.734;2023-07-29T02:37:53;19.00;99.90
5578;DHT22;2811;51.900;10.734;2023-07-29T02:40:20;19.10;99.90
5578;DHT22;2811;51.900;10.734;2023-07-29T02:42:48;19.10;99.90
5578;DHT22;2811;51.900;10.734;2023-07-29T02:45:15;18.90;99.90
5578;DHT22;2811;51.900;10.734;2023-07-29T02:47:43;18.90;99.90
5578;DHT22;2811;51.900;10.734;2023-07-29T02:50:09;18.90;99.90
5578;DHT22;2811;51.900;10.734;2023-07-29T02:52:36;18.80;99.90
5578;DHT22;2811;51.900;10.734;2023-07-29T02:55:04;18.80;99.90
5578;DHT22;2811;51.900;10.734;2023-07-29T02:57:30;18.60;99.90
5578;DHT22;2811;51.900;10.734;2023-07-29T02:59:57;18.50;99.90
5578;DHT22;2811;51.900;10.734;2023-07-29T03:02:24;18.30;99.90
5578;DHT22;2811;51.900;10.734;2023-07-29T03:04:52;18.30;99.90
5578;DHT22;2811;51.900;10.734;2023-07-29T03:07:18;18.30;99.90
5578;DHT22;2811;51.900;10.734;2023-07-29T03:09:45;18.40;99.90
5578;DHT22;2811;51.900;10.734;2023-07-29T03:12:12;18.40;99.90
5578;DHT22;2811;51.900;10.734;2023-07-29T03:14:39;18.30;99.90
5578;DHT22;2811;51.900;10.734;2023-07-29T03:17:06;18.30;99.90
5578;DHT22;2811;51.900;10.734;2023-07-29T03:19:33;18.20;99.90
5578;DHT22;2811;51.900;10.734;2023-07-29T03:22:01;18.30;99.90
5578;DHT22;2811;51.900;10.734;2023-07-29T03:24:28;18.40;99.90
5578;DHT22;2811;51.900;10.734;2023-07-29T03:26:55;18.40;99.90
5578;DHT22;2811;51.900;10.734;2023-07-29T03:29:22;18.50;99.90
5578;DHT22;2811;51.900;10.734;2023-07-29T03:31:48;18.40;99.90
5578;DHT22;2811;51.900;10.734;2023-07-29T03:34:15;18.50;99.90
5578;DHT22;2811;51.900;10.734;2023-07-29T03:36:42;18.70;99.90
5578;DHT22;2811;51.900;10.734;2023-07-29T03:39:12;18.60;99.90
5578;DHT22;2811;51.900;10.734;2023-07-29T03:41:39;18.80;99.90
5578;DHT22;2811;51.900;10.734;2023-07-29T03:44:06;18.90;99.90
5578;DHT22;2811;51.900;10.734;2023-07-29T03:46:32;18.90;99.90
5578;DHT22;2811;51.900;10.734;2023-07-29T03:48:59;18.80;99.90
5578;DHT22;2811;51.900;10.734;2023-07-29T03:51:26;18.70;99.90
5578;DHT22;2811;51.900;10.734;2023-07-29T03:53:52;18.90;99.90
5578;DHT22;2811;51.900;10.734;2023-07-29T03:56:20;19.00;99.90
5578;DHT22;2811;51.900;10.734;2023-07-29T03:58:47;19.10;99.90
5578;DHT22;2811;51.900;10.734;2023-07-29T04:01:14;19.20;99.90
5578;DHT22;2811;51.900;10.734;2023-07-29T04:03:41;19.30;99.90
5578;DHT22;2811;51.900;10.734;2023-07-29T04:06:08;19.40;99.90
5578;DHT22;2811;51.900;10.734;2023-07-29T04:08:35;19.40;99.90
5578;DHT22;2811;51.900;10.734;2023-07-29T04:11:01;19.50;99.90
5578;DHT22;2811;51.900;10.734;2023-07-29T04:13:29;19.50;99.90
5578;DHT22;2811;51.900;10.734;2023-07-29T04:15:56;19.60;99.90
5578;DHT22;2811;51.900;10.734;2023-07-29T04:18:23;19.40;99.90
5578;DHT22;2811;51.900;10.734;2023-07-29T04:20:49;19.40;99.90
5578;DHT22;2811;51.900;10.734;2023-07-29T04:23:16;19.70;99.90
5578;DHT22;2811;51.900;10.734;2023-07-29T04:25:43;19.80;99.90
5578;DHT22;2811;51.900;10.734;2023-07-29T04:28:09;19.70;99.90
5578;DHT22;2811;51.900;10.734;2023-07-29T04:30:38;19.90;99.90
5578;DHT22;2811;51.900;10.734;2023-07-29T04:33:04;20.00;99.90
5578;DHT22;2811;51.900;10.734;2023-07-29T04:35:31;19.60;99.90
5578;DHT22;2811;51.900;10.734;2023-07-29T04:37:58;19.80;99.90
5578;DHT22;2811;51.900;10.734;2023-07-29T04:40:24;19.80;99.90
5578;DHT22;2811;51.900;10.734;2023-07-29T04:42:51;19.90;99.90
5578;DHT22;2811;51.900;10.734;2023-07-29T04:45:18;20.10;99.90
5578;DHT22;2811;51.900;10.734;2023-07-29T04:47:47;20.30;99.90
5578;DHT22;2811;51.900;10.734;2023-07-29T04:50:13;20.40;99.90
5578;DHT22;2811;51.900;10.734;2023-07-29T04:52:40;20.70;99.90
5578;DHT22;2811;51.900;10.734;2023-07-29T04:55:07;20.60;99.90
5578;DHT22;2811;51.900;10.734;2023-07-29T04:57:34;20.60;99.90
5578;DHT22;2811;51.900;10.734;2023-07-29T05:00:01;20.60;99.90
5578;DHT22;2811;51.900;10.734;2023-07-29T05:02:28;20.60;99.90
5578;DHT22;2811;51.900;10.734;2023-07-29T05:04:56;20.70;99.90
5578;DHT22;2811;51.900;10.734;2023-07-29T05:07:23;20.90;99.90
5578;DHT22;2811;51.900;10.734;2023-07-29T05:09:50;21.20;99.90
5578;DHT22;2811;51.900;10.734;2023-07-29T05:12:17;21.20;99.90
5578;DHT22;2811;51.900;10.734;2023-07-29T05:14:43;21.40;99.90
5578;DHT22;2811;51.900;10.734;2023-07-29T05:17:10;20.70;99.90
5578;DHT22;2811;51.900;10.734;2023-07-29T05:19:37;21.00;99.90
5578;DHT22;2811;51.900;10.734;2023-07-29T05:22:05;21.40;99.90
5578;DHT22;2811;51.900;10.734;2023-07-29T05:24:32;21.30;99.90
5578;DHT22;2811;51.900;10.734;2023-07-29T05:26:59;21.30;99.90
5578;DHT22;2811;51.900;10.734;2023-07-29T05:29:25;21.40;99.90
5578;DHT22;2811;51.900;10.734;2023-07-29T05:31:52;21.40;99.90
5578;DHT22;2811;51.900;10.734;2023-07-29T05:34:19;21.40;99.90
5578;DHT22;2811;51.900;10.734;2023-07-29T05:36:45;21.50;99.90
5578;DHT22;2811;51.900;10.734;2023-07-29T05:39:13;21.20;99.90
5578;DHT22;2811;51.900;10.734;2023-07-29T05:41:40;21.10;99.90
5578;DHT22;2811;51.900;10.734;2023-07-29T05:44:07;21.10;99.90
5578;DHT22;2811;51.900;10.734;2023-07-29T05:46:33;21.00;99.90
5578;DHT22;2811;51.900;10.734;2023-07-29T05:49:00;20.80;99.90
5578;DHT22;2811;51.900;10.734;2023-07-29T05:51:28;21.00;99.90
5578;DHT22;2811;51.900;10.734;2023-07-29T05:53:54;21.20;99.90
5578;DHT22;2811;51.900;10.734;2023-07-29T05:56:22;21.10;99.90
5578;DHT22;2811;51.900;10.734;2023-07-29T05:58:49;20.80;99.90
5578;DHT22;2811;51.900;10.734;2023-07-29T06:01:16;20.70;99.90
5578;DHT22;2811;51.900;10.734;2023-07-29T06:03:42;20.70;99.90
5578;DHT22;2811;51.900;10.734;2023-07-29T06:06:09;20.70;99.90
5578;DHT22;2811;51.900;10.734;2023-07-29T06:08:36;20.60;99.90
5578;DHT22;2811;51.900;10.734;2023-07-29T06:11:03;20.50;99.90
5578;DHT22;2811;51.900;10.734;2023-07-29T06:13:33;20.60;99.90
5578;DHT22;2811;51.900;10.734;2023-07-29T06:15:59;20.50;99.90
5578;DHT22;2811;51.900;10.734;2023-07-29T06:18:26;20.30;99.90
5578;DHT22;2811;51.900;10.734;2023-07-29T06:20:53;20.30;99.90
5578;DHT22;2811;51.900;10.734;2023-07-29T06:23:19;20.30;99.90
5578;DHT22;2811;51.900;10.734;2023-07-29T06:25:46;20.30;99.90
5578;DHT22;2811;51.900;10.734;2023-07-29T06:28:13;20.30;99.90
5578;DHT22;2811;51.900;10.734;2023-07-29T06:30:41;20.40;99.90
5578;DHT22;2811;51.900;10.734;2023-07-29T06:33:08;20.50;99.90
5578;DHT22;2811;51.900;10.734;2023-07-29T06:35:34;20.70;99.90
5578;DHT22;2811;51.900;10.734;2023-07-29T06:38:01;20.90;99.90
5578;DHT22;2811;51.900;10.734;2023-07-29T06:40:28;21.20;99.90
5578;DHT22;2811;51.900;10.734;2023-07-29T06:42:55;21.30;99.90
5578;DHT22;2811;51.900;10.734;2023-07-29T06:45:21;21.30;99.90
5578;DHT22;2811;51.900;10.734;2023-07-29T06:47:49;21.30;99.90
5578;DHT22;2811;51.900;10.734;2023-07-29T06:50:16;21.40;99.90
5578;DHT22;2811;51.900;10.734;2023-07-29T06:52:43;21.40;99.90
5578;DHT22;2811;51.900;10.734;2023-07-29T06:55:09;21.50;99.90
5578;DHT22;2811;51.900;10.734;2023-07-29T06:57:36;21.70;99.90
5578;DHT22;2811;51.900;10.734;2023-07-29T07:00:04;21.80;99.90
5578;DHT22;2811;51.900;10.734;2023-07-29T07:02:31;21.80;99.90
5578;DHT22;2811;51.900;10.734;2023-07-29T07:04:59;22.10;99.90
5578;DHT22;2811;51.900;10.734;2023-07-29T07:07:25;22.20;99.90
5578;DHT22;2811;51.900;10.734;2023-07-29T07:09:54;21.70;99.90
5578;DHT22;2811;51.900;10.734;2023-07-29T07:12:21;21.30;99.90
5578;DHT22;2811;51.900;10.734;2023-07-29T07:14:47;21.40;99.90
5578;DHT22;2811;51.900;10.734;2023-07-29T07:17:14;21.60;99.90
5578;DHT22;2811;51.900;10.734;2023-07-29T07:19:41;21.70;99.90
5578;DHT22;2811;51.900;10.734;2023-07-29T07:22:09;21.30;99.90
5578;DHT22;2811;51.900;10.734;2023-07-29T07:24:36;21.10;99.90
5578;DHT22;2811;51.900;10.734;2023-07-29T07:27:03;20.80;99.90
5578;DHT22;2811;51.900;10.734;2023-07-29T07:29:29;20.60;99.90
5578;DHT22;2811;51.900;10.734;2023-07-29T07:31:56;20.40;99.90
5578;DHT22;2811;51.900;10.734;2023-07-29T07:34:23;20.30;99.90
5578;DHT22;2811;51.900;10.734;2023-07-29T07:36:50;20.20;99.90
5578;DHT22;2811;51.900;10.734;2023-07-29T07:39:18;20.30;99.90
5578;DHT22;2811;51.900;10.734;2023-07-29T07:41:45;20.40;99.90
5578;DHT22;2811;51.900;10.734;2023-07-29T07:44:12;20.60;99.90
5578;DHT22;2811;51.900;10.734;2023-07-29T07:46:41;20.60;99.90
5578;DHT22;2811;51.900;10.734;2023-07-29T07:49:07;20.60;99.90
5578;DHT22;2811;51.900;10.734;2023-07-29T07:51:34;20.70;99.90
5578;DHT22;2811;51.900;10.734;2023-07-29T07:54:01;20.40;99.90
5578;DHT22;2811;51.900;10.734;2023-07-29T07:56:29;20.30;99.90
5578;DHT22;2811;51.900;10.734;2023-07-29T07:58:56;20.40;99.90
5578;DHT22;2811;51.900;10.734;2023-07-29T08:01:22;20.40;99.90
5578;DHT22;2811;51.900;10.734;2023-07-29T08:03:49;20.40;99.90
5578;DHT22;2811;51.900;10.734;2023-07-29T08:06:16;20.50;99.90
5578;DHT22;2811;51.900;10.734;2023-07-29T08:08:42;20.80;99.90
5578;DHT22;2811;51.900;10.734;2023-07-29T08:11:09;20.60;99.90
5578;DHT22;2811;51.900;10.734;2023-07-29T08:13:37;20.70;99.90
5578;DHT22;2811;51.900;10.734;2023-07-29T08:16:04;20.50;99.90
5578;DHT22;2811;51.900;10.734;2023-07-29T08:18:30;20.20;99.90
5578;DHT22;2811;51.900;10.734;2023-07-29T08:20:59;20.10;99.90
5578;DHT22;2811;51.900;10.734;2023-07-29T08:23:29;20.10;99.90
5578;DHT22;2811;51.900;10.734;2023-07-29T08:25:56;20.10;99.90
5578;DHT22;2811;51.900;10.734;2023-07-29T08:28:27;20.40;99.90
5578;DHT22;2811;51.900;10.734;2023-07-29T08:30:56;20.40;99.90
5578;DHT22;2811;51.900;10.734;2023-07-29T08:33:23;20.70;99.90
5578;DHT22;2811;51.900;10.734;2023-07-29T08:35:50;21.10;99.90
5578;DHT22;2811;51.900;10.734;2023-07-29T08:38:17;21.30;99.90
5578;DHT22;2811;51.900;10.734;2023-07-29T08:40:48;21.90;99.90
5578;DHT22;2811;51.900;10.734;2023-07-29T08:43:18;22.20;99.90
5578;DHT22;2811;51.900;10.734;2023-07-29T08:45:46;22.70;99.90
5578;DHT22;2811;51.900;10.734;2023-07-29T08:48:16;22.80;99.90
5578;DHT22;2811;51.900;10.734;2023-07-29T08:50:44;22.60;99.90
5578;DHT22;2811;51.900;10.734;2023-07-29T08:53:12;22.50;99.90
5578;DHT22;2811;51.900;10.734;2023-07-29T08:55:39;22.60;99.90
5578;DHT22;2811;51.900;10.734;2023-07-29T08:58:06;23.00;99.90
5578;DHT22;2811;51.900;10.734;2023-07-29T09:00:33;22.80;99.90
5578;DHT22;2811;51.900;10.734;2023-07-29T09:03:00;22.80;99.90
5578;DHT22;2811;51.900;10.734;2023-07-29T09:05:33;22.60;99.90
5578;DHT22;2811;51.900;10.734;2023-07-29T09:07:59;22.70;99.90
5578;DHT22;2811;51.900;10.734;2023-07-29T09:10:28;22.50;99.90
5578;DHT22;2811;51.900;10.734;2023-07-29T09:12:55;22.10;99.90
5578;DHT22;2811;51.900;10.734;2023-07-29T09:15:33;22.10;99.90
5578;DHT22;2811;51.900;10.734;2023-07-29T09:18:09;22.10;99.90
5578;DHT22;2811;51.900;10.734;2023-07-29T09:20:37;22.30;99.90
5578;DHT22;2811;51.900;10.734;2023-07-29T09:23:07;22.50;99.90
5578;DHT22;2811;51.900;10.734;2023-07-29T09:25:34;22.70;99.90
5578;DHT22;2811;51.900;10.734;2023-07-29T09:28:02;22.90;99.90
5578;DHT22;2811;51.900;10.734;2023-07-29T09:30:34;23.10;99.90
5578;DHT22;2811;51.900;10.734;2023-07-29T09:33:00;23.10;99.90
5578;DHT22;2811;51.900;10.734;2023-07-29T09:35:29;23.40;99.90
5578;DHT22;2811;51.900;10.734;2023-07-29T09:37:58;23.60;99.90
5578;DHT22;2811;51.900;10.734;2023-07-29T09:40:25;23.60;99.90
5578;DHT22;2811;51.900;10.734;2023-07-29T09:42:53;23.50;99.90
5578;DHT22;2811;51.900;10.734;2023-07-29T09:45:21;23.40;99.90
5578;DHT22;2811;51.900;10.734;2023-07-29T09:47:48;23.70;99.90
5578;DHT22;2811;51.900;10.734;2023-07-29T09:50:15;23.90;99.90
5578;DHT22;2811;51.900;10.734;2023-07-29T09:52:42;23.80;99.90
5578;DHT22;2811;51.900;10.734;2023-07-29T09:55:12;23.90;99.90
5578;DHT22;2811;51.900;10.734;2023-07-29T09:57:39;24.10;99.90
5578;DHT22;2811;51.900;10.734;2023-07-29T10:00:07;24.00;99.90
5578;DHT22;2811;51.900;10.734;2023-07-29T10:02:37;23.90;99.90
5578;DHT22;2811;51.900;10.734;2023-07-29T10:05:05;24.00;99.90
5578;DHT22;2811;51.900;10.734;2023-07-29T10:07:33;24.00;99.90
5578;DHT22;2811;51.900;10.734;2023-07-29T10:10:02;24.10;99.90
5578;DHT22;2811;51.900;10.734;2023-07-29T10:12:31;24.30;99.90
5578;DHT22;2811;51.900;10.734;2023-07-29T10:14:59;24.40;99.90
5578;DHT22;2811;51.900;10.734;2023-07-29T10:17:27;24.80;99.90
5578;DHT22;2811;51.900;10.734;2023-07-29T10:19:56;25.00;99.90
5578;DHT22;2811;51.900;10.734;2023-07-29T10:22:26;25.00;99.90
5578;DHT22;2811;51.900;10.734;2023-07-29T10:24:55;25.10;99.90
5578;DHT22;2811;51.900;10.734;2023-07-29T10:27:24;24.70;99.90
5578;DHT22;2811;51.900;10.734;2023-07-29T10:29:55;24.40;99.90
5578;DHT22;2811;51.900;10.734;2023-07-29T10:32:24;24.50;99.90
5578;DHT22;2811;51.900;10.734;2023-07-29T10:34:52;24.30;99.90
5578;DHT22;2811;51.900;10.734;2023-07-29T10:37:19;23.90;99.90
5578;DHT22;2811;51.900;10.734;2023-07-29T10:39:52;23.50;99.90
5578;DHT22;2811;51.900;10.734;2023-07-29T10:42:19;23.20;99.90
5578;DHT22;2811;51.900;10.734;2023-07-29T10:44:51;23.00;99.90
5578;DHT22;2811;51.900;10.734;2023-07-29T10:47:20;22.90;99.90
5578;DHT22;2811;51.900;10.734;2023-07-29T10:49:50;22.80;99.90
5578;DHT22;2811;51.900;10.734;2023-07-29T10:52:32;23.10;99.90
5578;DHT22;2811;51.900;10.734;2023-07-29T10:55:04;23.70;99.90
5578;DHT22;2811;51.900;10.734;2023-07-29T10:57:48;23.90;99.90
5578;DHT22;2811;51.900;10.734;2023-07-29T11:00:19;24.10;99.90
5578;DHT22;2811;51.900;10.734;2023-07-29T11:02:58;24.20;99.90
5578;DHT22;2811;51.900;10.734;2023-07-29T11:05:25;24.70;99.90
5578;DHT22;2811;51.900;10.734;2023-07-29T11:07:52;25.10;99.90
5578;DHT22;2811;51.900;10.734;2023-07-29T11:10:19;25.30;99.90
5578;DHT22;2811;51.900;10.734;2023-07-29T11:12:46;25.00;99.90
5578;DHT22;2811;51.900;10.734;2023-07-29T11:15:25;24.80;99.90
5578;DHT22;2811;51.900;10.734;2023-07-29T11:17:53;25.00;99.90
5578;DHT22;2811;51.900;10.734;2023-07-29T11:20:21;25.40;99.90
5578;DHT22;2811;51.900;10.734;2023-07-29T11:22:49;25.50;99.90
5578;DHT22;2811;51.900;10.734;2023-07-29T11:25:16;25.40;99.90
5578;DHT22;2811;51.900;10.734;2023-07-29T11:27:43;25.40;99.90
5578;DHT22;2811;51.900;10.734;2023-07-29T11:30:12;25.40;99.90
5578;DHT22;2811;51.900;10.734;2023-07-29T11:32:41;25.10;99.90
5578;DHT22;2811;51.900;10.734;2023-07-29T11:35:10;25.10;99.90
5578;DHT22;2811;51.900;10.734;2023-07-29T11:37:39;25.00;99.90
5578;DHT22;2811;51.900;10.734;2023-07-29T11:40:07;24.90;99.90
5578;DHT22;2811;51.900;10.734;2023-07-29T11:42:36;24.90;99.90
5578;DHT22;2811;51.900;10.734;2023-07-29T11:45:04;24.90;99.90
5578;DHT22;2811;51.900;10.734;2023-07-29T11:47:32;24.50;99.90
5578;DHT22;2811;51.900;10.734;2023-07-29T11:50:03;24.30;99.90
5578;DHT22;2811;51.900;10.734;2023-07-29T11:52:31;24.00;99.90
5578;DHT22;2811;51.900;10.734;2023-07-29T11:54:58;24.00;99.90
5578;DHT22;2811;51.900;10.734;2023-07-29T11:57:25;23.50;99.90
5578;DHT22;2811;51.900;10.734;2023-07-29T11:59:52;23.30;99.90
5578;DHT22;2811;51.900;10.734;2023-07-29T12:02:20;23.20;99.90
5578;DHT22;2811;51.900;10.734;2023-07-29T12:04:47;23.20;99.90
5578;DHT22;2811;51.900;10.734;2023-07-29T12:07:17;23.20;99.90
5578;DHT22;2811;51.900;10.734;2023-07-29T12:09:44;23.20;99.90
5578;DHT22;2811;51.900;10.734;2023-07-29T12:12:11;23.30;99.90
5578;DHT22;2811;51.900;10.734;2023-07-29T12:14:38;23.70;99.90
5578;DHT22;2811;51.900;10.734;2023-07-29T12:17:06;23.80;99.90
5578;DHT22;2811;51.900;10.734;2023-07-29T12:19:33;24.20;99.90
5578;DHT22;2811;51.900;10.734;2023-07-29T12:22:00;24.30;99.90
5578;DHT22;2811;51.900;10.734;2023-07-29T12:24:29;24.30;99.90
5578;DHT22;2811;51.900;10.734;2023-07-29T12:26:56;24.30;99.90
5578;DHT22;2811;51.900;10.734;2023-07-29T12:29:22;24.20;99.90
5578;DHT22;2811;51.900;10.734;2023-07-29T12:31:57;24.20;99.90
5578;DHT22;2811;51.900;10.734;2023-07-29T12:34:25;24.30;99.90
5578;DHT22;2811;51.900;10.734;2023-07-29T12:36:52;24.50;99.90
5578;DHT22;2811;51.900;10.734;2023-07-29T12:39:21;24.90;99.90
5578;DHT22;2811;51.900;10.734;2023-07-29T12:41:50;25.20;99.90
5578;DHT22;2811;51.900;10.734;2023-07-29T12:44:17;25.80;99.90
5578;DHT22;2811;51.900;10.734;2023-07-29T12:46:44;25.70;99.90
5578;DHT22;2811;51.900;10.734;2023-07-29T12:49:11;26.00;99.90
5578;DHT22;2811;51.900;10.734;2023-07-29T12:51:38;25.90;99.90
5578;DHT22;2811;51.900;10.734;2023-07-29T12:54:05;25.70;99.90
5578;DHT22;2811;51.900;10.734;2023-07-29T12:56:32;25.50;99.90
5578;DHT22;2811;51.900;10.734;2023-07-29T12:59:01;25.30;99.90
5578;DHT22;2811;51.900;10.734;2023-07-29T13:01:28;25.30;99.90
5578;DHT22;2811;51.900;10.734;2023-07-29T13:03:55;25.50;99.90
5578;DHT22;2811;51.900;10.734;2023-07-29T13:06:22;25.60;99.90
5578;DHT22;2811;51.900;10.734;2023-07-29T13:08:49;25.70;99.90
5578;DHT22;2811;51.900;10.734;2023-07-29T13:11:16;25.70;99.90
5578;DHT22;2811;51.900;10.734;2023-07-29T13:13:43;25.70;99.90
5578;DHT22;2811;51.900;10.734;2023-07-29T13:16:12;25.70;99.90
5578;DHT22;2811;51.900;10.734;2023-07-29T13:18:39;25.80;99.90
5578;DHT22;2811;51.900;10.734;2023-07-29T13:21:06;25.60;99.90
5578;DHT22;2811;51.900;10.734;2023-07-29T13:23:32;25.70;99.90
5578;DHT22;2811;51.900;10.734;2023-07-29T13:25:59;25.50;99.90
5578;DHT22;2811;51.900;10.734;2023-07-29T13:28:26;25.80;99.90
5578;DHT22;2811;51.900;10.734;2023-07-29T13:30:53;25.70;99.90
5578;DHT22;2811;51.900;10.734;2023-07-29T13:33:21;25.70;99.90
5578;DHT22;2811;51.900;10.734;2023-07-29T13:35:48;25.70;99.90
5578;DHT22;2811;51.900;10.734;2023-07-29T13:38:14;26.00;99.90
5578;DHT22;2811;51.900;10.734;2023-07-29T13:40:41;26.00;99.90
5578;DHT22;2811;51.900;10.734;2023-07-29T13:43:08;26.20;99.90
5578;DHT22;2811;51.900;10.734;2023-07-29T13:45:35;26.40;99.90
5578;DHT22;2811;51.900;10.734;2023-07-29T13:48:02;26.70;99.90
5578;DHT22;2811;51.900;10.734;2023-07-29T13:50:30;26.90;99.90
5578;DHT22;2811;51.900;10.734;2023-07-29T13:52:56;26.70;99.90
5578;DHT22;2811;51.900;10.734;2023-07-29T13:55:23;26.60;99.90
5578;DHT22;2811;51.900;10.734;2023-07-29T13:57:52;26.40;99.90
5578;DHT22;2811;51.900;10.734;2023-07-29T14:00:18;26.10;99.90
5578;DHT22;2811;51.900;10.734;2023-07-29T14:02:45;26.40;99.90
5578;DHT22;2811;51.900;10.734;2023-07-29T14:05:12;25.70;99.90
5578;DHT22;2811;51.900;10.734;2023-07-29T14:07:41;25.70;99.90
5578;DHT22;2811;51.900;10.734;2023-07-29T14:10:07;25.80;99.90
5578;DHT22;2811;51.900;10.734;2023-07-29T14:12:34;25.90;99.90
5578;DHT22;2811;51.900;10.734;2023-07-29T14:15:01;26.00;99.90
5578;DHT22;2811;51.900;10.734;2023-07-29T14:17:28;26.00;99.90
5578;DHT22;2811;51.900;10.734;2023-07-29T14:19:54;25.80;99.90
5578;DHT22;2811;51.900;10.734;2023-07-29T14:22:21;25.80;99.90
5578;DHT22;2811;51.900;10.734;2023-07-29T14:24:49;25.90;99.90
5578;DHT22;2811;51.900;10.734;2023-07-29T14:27:16;25.80;99.90
5578;DHT22;2811;51.900;10.734;2023-07-29T14:29:43;25.90;99.90
5578;DHT22;2811;51.900;10.734;2023-07-29T14:32:09;25.90;99.90
5578;DHT22;2811;51.900;10.734;2023-07-29T14:34:36;25.80;99.90
5578;DHT22;2811;51.900;10.734;2023-07-29T14:37:04;25.90;99.90
5578;DHT22;2811;51.900;10.734;2023-07-29T14:39:31;26.10;99.90
5578;DHT22;2811;51.900;10.734;2023-07-29T14:41:59;26.20;99.90
5578;DHT22;2811;51.900;10.734;2023-07-29T14:44:26;26.10;99.90
5578;DHT22;2811;51.900;10.734;2023-07-29T14:46:53;26.30;99.90
5578;DHT22;2811;51.900;10.734;2023-07-29T14:49:20;25.90;99.90
5578;DHT22;2811;51.900;10.734;2023-07-29T14:51:47;25.90;99.90
5578;DHT22;2811;51.900;10.734;2023-07-29T14:54:14;25.90;99.90
5578;DHT22;2811;51.900;10.734;2023-07-29T14:56:41;26.20;99.90
5578;DHT22;2811;51.900;10.734;2023-07-29T14:59:09;26.40;99.20
5578;DHT22;2811;51.900;10.734;2023-07-29T15:01:35;26.40;99.90
5578;DHT22;2811;51.900;10.734;2023-07-29T15:04:02;26.30;99.20
5578;DHT22;2811;51.900;10.734;2023-07-29T15:06:29;26.30;99.00
5578;DHT22;2811;51.900;10.734;2023-07-29T15:08:56;26.20;99.90
5578;DHT22;2811;51.900;10.734;2023-07-29T15:11:23;26.20;99.90
5578;DHT22;2811;51.900;10.734;2023-07-29T15:13:49;26.30;99.70
5578;DHT22;2811;51.900;10.734;2023-07-29T15:16:17;26.20;99.40
5578;DHT22;2811;51.900;10.734;2023-07-29T15:18:44;26.40;99.60
5578;DHT22;2811;51.900;10.734;2023-07-29T15:21:11;26.20;99.30
5578;DHT22;2811;51.900;10.734;2023-07-29T15:23:37;26.30;99.60
5578;DHT22;2811;51.900;10.734;2023-07-29T15:26:04;26.10;99.60
5578;DHT22;2811;51.900;10.734;2023-07-29T15:28:31;26.10;99.50
5578;DHT22;2811;51.900;10.734;2023-07-29T15:30:57;26.20;99.10
5578;DHT22;2811;51.900;10.734;2023-07-29T15:33:26;26.20;98.90
5578;DHT22;2811;51.900;10.734;2023-07-29T15:35:52;26.30;99.90
5578;DHT22;2811;51.900;10.734;2023-07-29T15:38:19;26.60;99.60
5578;DHT22;2811;51.900;10.734;2023-07-29T15:40:46;26.80;99.00
5578;DHT22;2811;51.900;10.734;2023-07-29T15:43:14;27.10;99.00
5578;DHT22;2811;51.900;10.734;2023-07-29T15:45:41;27.50;97.90
5578;DHT22;2811;51.900;10.734;2023-07-29T15:48:08;28.20;97.30